sensor_id;sensor_type;location;lat;lon;timestamp;P1;durP1;ratioP1;P2;durP2;ratioP2
55202;SDS011;41077;52.956;6.796;2023-03-01T00:00:46;95.32;;;88.72;;
55202;SDS011;41077;52.956;6.796;2023-03-01T00:03:11;105.93;;;98.32;;
55202;SDS011;41077;52.956;6.796;2023-03-01T00:05:43;95.70;;;88.93;;
55202;SDS011;41077;52.956;6.796;2023-03-01T00:08:10;92.30;;;85.82;;
55202;SDS011;41077;52.956;6.796;2023-03-01T00:10:36;102.38;;;95.47;;
55202;SDS011;41077;52.956;6.796;2023-03-01T00:13:02;98.45;;;91.65;;
55202;SDS011;41077;52.956;6.796;2023-03-01T00:15:30;99.43;;;92.50;;
55202;SDS011;41077;52.956;6.796;2023-03-01T00:17:56;102.45;;;95.18;;
55202;SDS011;41077;52.956;6.796;2023-03-01T00:20:22;100.90;;;94.18;;
55202;SDS011;41077;52.956;6.796;2023-03-01T00:22:48;98.57;;;91.82;;
55202;SDS011;41077;52.956;6.796;2023-03-01T00:25:14;101.47;;;94.75;;
55202;SDS011;41077;52.956;6.796;2023-03-01T00:27:39;98.07;;;91.47;;
55202;SDS011;41077;52.956;6.796;2023-03-01T00:30:05;96.00;;;89.75;;
55202;SDS011;41077;52.956;6.796;2023-03-01T00:32:31;104.97;;;98.15;;
55202;SDS011;41077;52.956;6.796;2023-03-01T00:34:57;95.38;;;88.93;;
55202;SDS011;41077;52.956;6.796;2023-03-01T00:37:23;94.22;;;87.50;;
55202;SDS011;41077;52.956;6.796;2023-03-01T00:39:49;98.85;;;91.82;;
55202;SDS011;41077;52.956;6.796;2023-03-01T00:42:15;94.47;;;88.30;;
55202;SDS011;41077;52.956;6.796;2023-03-01T00:44:42;91.82;;;85.45;;
55202;SDS011;41077;52.956;6.796;2023-03-01T00:47:08;94.28;;;87.93;;
55202;SDS011;41077;52.956;6.796;2023-03-01T00:49:34;90.47;;;84.13;;
55202;SDS011;41077;52.956;6.796;2023-03-01T00:51:59;100.53;;;93.43;;
55202;SDS011;41077;52.956;6.796;2023-03-01T00:54:25;100.25;;;93.57;;
55202;SDS011;41077;52.956;6.796;2023-03-01T00:56:51;95.97;;;89.65;;
55202;SDS011;41077;52.956;6.796;2023-03-01T00:59:16;99.55;;;92.72;;
55202;SDS011;41077;52.956;6.796;2023-03-01T01:01:42;95.80;;;89.65;;
55202;SDS011;41077;52.956;6.796;2023-03-01T01:04:09;95.90;;;89.28;;
55202;SDS011;41077;52.956;6.796;2023-03-01T01:06:37;92.28;;;85.97;;
55202;SDS011;41077;52.956;6.796;2023-03-01T01:09:07;96.68;;;90.28;;
55202;SDS011;41077;52.956;6.796;2023-03-01T01:11:34;89.70;;;83.43;;
55202;SDS011;41077;52.956;6.796;2023-03-01T01:14:03;97.03;;;90.63;;
55202;SDS011;41077;52.956;6.796;2023-03-01T01:16:29;92.30;;;85.88;;
55202;SDS011;41077;52.956;6.796;2023-03-01T01:18:55;92.63;;;86.18;;
55202;SDS011;41077;52.956;6.796;2023-03-01T01:21:22;94.75;;;88.57;;
55202;SDS011;41077;52.956;6.796;2023-03-01T01:23:49;91.35;;;85.07;;
55202;SDS011;41077;52.956;6.796;2023-03-01T01:26:17;90.03;;;84.07;;
55202;SDS011;41077;52.956;6.796;2023-03-01T01:28:45;94.55;;;87.88;;
55202;SDS011;41077;52.956;6.796;2023-03-01T01:31:11;96.60;;;90.25;;
55202;SDS011;41077;52.956;6.796;2023-03-01T01:33:37;87.43;;;81.20;;
55202;SDS011;41077;52.956;6.796;2023-03-01T01:36:04;87.53;;;81.38;;
55202;SDS011;41077;52.956;6.796;2023-03-01T01:38:30;82.07;;;76.38;;
55202;SDS011;41077;52.956;6.796;2023-03-01T01:40:57;84.70;;;78.65;;
55202;SDS011;41077;52.956;6.796;2023-03-01T01:43:27;80.55;;;74.72;;
55202;SDS011;41077;52.956;6.796;2023-03-01T01:45:55;77.60;;;72.05;;
55202;SDS011;41077;52.956;6.796;2023-03-01T01:48:26;75.10;;;69.53;;
55202;SDS011;41077;52.956;6.796;2023-03-01T01:51:05;72.22;;;66.80;;
55202;SDS011;41077;52.956;6.796;2023-03-01T01:53:35;73.07;;;67.75;;
55202;SDS011;41077;52.956;6.796;2023-03-01T01:56:03;74.18;;;68.63;;
55202;SDS011;41077;52.956;6.796;2023-03-01T01:58:31;75.60;;;70.10;;
55202;SDS011;41077;52.956;6.796;2023-03-01T02:00:57;73.18;;;68.05;;
55202;SDS011;41077;52.956;6.796;2023-03-01T02:03:24;78.88;;;72.50;;
55202;SDS011;41077;52.956;6.796;2023-03-01T02:06:05;70.03;;;64.88;;
55202;SDS011;41077;52.956;6.796;2023-03-01T02:08:37;72.13;;;66.97;;
55202;SDS011;41077;52.956;6.796;2023-03-01T02:11:06;69.28;;;63.28;;
55202;SDS011;41077;52.956;6.796;2023-03-01T02:13:33;70.47;;;65.50;;
55202;SDS011;41077;52.956;6.796;2023-03-01T02:16:02;72.25;;;66.75;;
55202;SDS011;41077;52.956;6.796;2023-03-01T02:18:33;68.13;;;62.85;;
55202;SDS011;41077;52.956;6.796;2023-03-01T02:21:05;70.07;;;64.72;;
55202;SDS011;41077;52.956;6.796;2023-03-01T02:23:36;65.20;;;60.38;;
55202;SDS011;41077;52.956;6.796;2023-03-01T02:26:05;65.97;;;60.88;;
55202;SDS011;41077;52.956;6.796;2023-03-01T02:28:45;61.45;;;56.50;;
55202;SDS011;41077;52.956;6.796;2023-03-01T02:31:14;66.20;;;61.10;;
55202;SDS011;41077;52.956;6.796;2023-03-01T02:34:01;63.33;;;58.40;;
55202;SDS011;41077;52.956;6.796;2023-03-01T02:36:39;64.95;;;59.95;;
55202;SDS011;41077;52.956;6.796;2023-03-01T02:39:14;62.08;;;57.42;;
55202;SDS011;41077;52.956;6.796;2023-03-01T02:41:47;63.67;;;58.70;;
55202;SDS011;41077;52.956;6.796;2023-03-01T02:44:16;63.13;;;58.60;;
55202;SDS011;41077;52.956;6.796;2023-03-01T02:46:44;66.13;;;61.60;;
55202;SDS011;41077;52.956;6.796;2023-03-01T02:49:32;68.97;;;63.67;;
55202;SDS011;41077;52.956;6.796;2023-03-01T02:54:48;59.20;;;54.08;;
55202;SDS011;41077;52.956;6.796;2023-03-01T02:57:21;61.35;;;56.38;;
55202;SDS011;41077;52.956;6.796;2023-03-01T02:59:48;58.00;;;53.45;;
55202;SDS011;41077;52.956;6.796;2023-03-01T03:02:20;56.75;;;52.15;;
55202;SDS011;41077;52.956;6.796;2023-03-01T03:05:11;60.43;;;55.90;;
55202;SDS011;41077;52.956;6.796;2023-03-01T03:07:41;55.95;;;50.92;;
55202;SDS011;41077;52.956;6.796;2023-03-01T03:10:10;56.10;;;51.35;;
55202;SDS011;41077;52.956;6.796;2023-03-01T03:12:41;54.05;;;50.03;;
55202;SDS011;41077;52.956;6.796;2023-03-01T03:15:07;57.90;;;53.40;;
55202;SDS011;41077;52.956;6.796;2023-03-01T03:17:35;58.80;;;54.40;;
55202;SDS011;41077;52.956;6.796;2023-03-01T03:20:02;57.35;;;52.25;;
55202;SDS011;41077;52.956;6.796;2023-03-01T03:22:29;56.60;;;51.55;;
55202;SDS011;41077;52.956;6.796;2023-03-01T03:24:56;58.22;;;53.35;;
55202;SDS011;41077;52.956;6.796;2023-03-01T03:27:22;53.08;;;48.63;;
55202;SDS011;41077;52.956;6.796;2023-03-01T03:29:47;57.33;;;52.13;;
55202;SDS011;41077;52.956;6.796;2023-03-01T03:32:13;53.88;;;49.28;;
55202;SDS011;41077;52.956;6.796;2023-03-01T03:34:38;55.78;;;51.50;;
55202;SDS011;41077;52.956;6.796;2023-03-01T03:37:04;57.28;;;52.47;;
55202;SDS011;41077;52.956;6.796;2023-03-01T03:39:50;56.00;;;51.17;;
55202;SDS011;41077;52.956;6.796;2023-03-01T03:42:20;59.53;;;54.00;;
55202;SDS011;41077;52.956;6.796;2023-03-01T03:44:47;56.33;;;51.38;;
55202;SDS011;41077;52.956;6.796;2023-03-01T03:47:13;56.55;;;52.03;;
55202;SDS011;41077;52.956;6.796;2023-03-01T03:49:39;62.97;;;57.72;;
55202;SDS011;41077;52.956;6.796;2023-03-01T03:52:04;59.40;;;54.60;;
55202;SDS011;41077;52.956;6.796;2023-03-01T03:54:38;58.88;;;53.95;;
55202;SDS011;41077;52.956;6.796;2023-03-01T03:57:05;57.10;;;52.40;;
55202;SDS011;41077;52.956;6.796;2023-03-01T03:59:31;58.78;;;53.55;;
55202;SDS011;41077;52.956;6.796;2023-03-01T04:01:57;61.17;;;56.00;;
55202;SDS011;41077;52.956;6.796;2023-03-01T04:04:23;60.83;;;55.72;;
55202;SDS011;41077;52.956;6.796;2023-03-01T04:06:48;57.13;;;51.95;;
55202;SDS011;41077;52.956;6.796;2023-03-01T04:09:14;57.20;;;52.92;;
55202;SDS011;41077;52.956;6.796;2023-03-01T04:11:40;55.25;;;50.58;;
55202;SDS011;41077;52.956;6.796;2023-03-01T04:14:06;55.65;;;50.75;;
55202;SDS011;41077;52.956;6.796;2023-03-01T04:16:31;52.42;;;48.35;;
55202;SDS011;41077;52.956;6.796;2023-03-01T04:18:57;52.15;;;47.88;;
55202;SDS011;41077;52.956;6.796;2023-03-01T04:21:24;49.90;;;45.70;;
55202;SDS011;41077;52.956;6.796;2023-03-01T04:23:50;48.53;;;44.22;;
55202;SDS011;41077;52.956;6.796;2023-03-01T04:26:18;49.67;;;45.45;;
55202;SDS011;41077;52.956;6.796;2023-03-01T04:28:44;51.45;;;46.92;;
55202;SDS011;41077;52.956;6.796;2023-03-01T04:31:20;56.05;;;51.13;;
55202;SDS011;41077;52.956;6.796;2023-03-01T04:33:50;56.30;;;51.65;;
55202;SDS011;41077;52.956;6.796;2023-03-01T04:36:18;54.65;;;49.85;;
55202;SDS011;41077;52.956;6.796;2023-03-01T04:38:45;57.80;;;52.85;;
55202;SDS011;41077;52.956;6.796;2023-03-01T04:41:14;57.08;;;52.28;;
55202;SDS011;41077;52.956;6.796;2023-03-01T04:43:43;55.80;;;50.97;;
55202;SDS011;41077;52.956;6.796;2023-03-01T04:46:13;56.03;;;51.35;;
55202;SDS011;41077;52.956;6.796;2023-03-01T04:48:41;60.00;;;54.97;;
55202;SDS011;41077;52.956;6.796;2023-03-01T04:51:08;57.88;;;52.78;;
55202;SDS011;41077;52.956;6.796;2023-03-01T04:53:34;62.15;;;56.30;;
55202;SDS011;41077;52.956;6.796;2023-03-01T04:56:01;53.80;;;48.92;;
55202;SDS011;41077;52.956;6.796;2023-03-01T04:58:28;59.85;;;54.95;;
55202;SDS011;41077;52.956;6.796;2023-03-01T05:00:54;56.88;;;51.60;;
55202;SDS011;41077;52.956;6.796;2023-03-01T05:03:20;56.08;;;51.05;;
55202;SDS011;41077;52.956;6.796;2023-03-01T05:05:48;56.13;;;51.15;;
55202;SDS011;41077;52.956;6.796;2023-03-01T05:08:15;58.17;;;52.92;;
55202;SDS011;41077;52.956;6.796;2023-03-01T05:10:49;58.67;;;53.97;;
55202;SDS011;41077;52.956;6.796;2023-03-01T05:13:17;57.38;;;52.42;;
55202;SDS011;41077;52.956;6.796;2023-03-01T05:15:54;57.40;;;52.58;;
55202;SDS011;41077;52.956;6.796;2023-03-01T05:18:27;59.50;;;54.13;;
55202;SDS011;41077;52.956;6.796;2023-03-01T05:20:55;54.75;;;49.70;;
55202;SDS011;41077;52.956;6.796;2023-03-01T05:23:28;58.42;;;53.13;;
55202;SDS011;41077;52.956;6.796;2023-03-01T05:25:57;57.13;;;52.33;;
55202;SDS011;41077;52.956;6.796;2023-03-01T05:28:24;56.50;;;51.13;;
55202;SDS011;41077;52.956;6.796;2023-03-01T05:30:51;56.95;;;52.33;;
55202;SDS011;41077;52.956;6.796;2023-03-01T05:33:17;54.50;;;49.90;;
55202;SDS011;41077;52.956;6.796;2023-03-01T05:35:44;58.45;;;53.47;;
55202;SDS011;41077;52.956;6.796;2023-03-01T05:38:14;58.35;;;53.08;;
55202;SDS011;41077;52.956;6.796;2023-03-01T05:40:41;60.25;;;54.60;;
55202;SDS011;41077;52.956;6.796;2023-03-01T05:43:08;62.78;;;56.90;;
55202;SDS011;41077;52.956;6.796;2023-03-01T05:45:36;56.45;;;51.53;;
55202;SDS011;41077;52.956;6.796;2023-03-01T05:48:03;54.33;;;49.15;;
55202;SDS011;41077;52.956;6.796;2023-03-01T05:50:32;63.38;;;57.95;;
55202;SDS011;41077;52.956;6.796;2023-03-01T05:55:38;60.88;;;55.83;;
55202;SDS011;41077;52.956;6.796;2023-03-01T05:58:06;59.30;;;53.42;;
55202;SDS011;41077;52.956;6.796;2023-03-01T06:00:34;60.70;;;55.13;;
55202;SDS011;41077;52.956;6.796;2023-03-01T06:03:00;57.42;;;52.63;;
55202;SDS011;41077;52.956;6.796;2023-03-01T06:05:26;55.97;;;51.08;;
55202;SDS011;41077;52.956;6.796;2023-03-01T06:07:53;58.40;;;53.47;;
55202;SDS011;41077;52.956;6.796;2023-03-01T06:10:19;53.45;;;48.97;;
55202;SDS011;41077;52.956;6.796;2023-03-01T06:12:46;57.78;;;52.50;;
55202;SDS011;41077;52.956;6.796;2023-03-01T06:15:13;52.70;;;48.05;;
55202;SDS011;41077;52.956;6.796;2023-03-01T06:17:41;56.92;;;51.95;;
55202;SDS011;41077;52.956;6.796;2023-03-01T06:20:11;54.28;;;49.65;;
55202;SDS011;41077;52.956;6.796;2023-03-01T06:22:41;58.28;;;52.60;;
55202;SDS011;41077;52.956;6.796;2023-03-01T06:25:08;57.33;;;52.55;;
55202;SDS011;41077;52.956;6.796;2023-03-01T06:27:35;63.65;;;57.83;;
55202;SDS011;41077;52.956;6.796;2023-03-01T06:30:01;764.92;;;443.63;;
55202;SDS011;41077;52.956;6.796;2023-03-01T06:32:28;38.20;;;33.20;;
55202;SDS011;41077;52.956;6.796;2023-03-01T06:34:53;44.55;;;39.83;;
55202;SDS011;41077;52.956;6.796;2023-03-01T06:37:19;78.25;;;71.90;;
55202;SDS011;41077;52.956;6.796;2023-03-01T06:39:45;407.52;;;369.08;;
55202;SDS011;41077;52.956;6.796;2023-03-01T06:42:10;128.73;;;117.07;;
55202;SDS011;41077;52.956;6.796;2023-03-01T06:44:36;138.90;;;130.02;;
55202;SDS011;41077;52.956;6.796;2023-03-01T06:47:02;156.82;;;146.68;;
55202;SDS011;41077;52.956;6.796;2023-03-01T06:49:28;185.63;;;174.02;;
55202;SDS011;41077;52.956;6.796;2023-03-01T06:51:55;174.63;;;163.93;;
55202;SDS011;41077;52.956;6.796;2023-03-01T06:54:21;163.63;;;153.32;;
55202;SDS011;41077;52.956;6.796;2023-03-01T06:56:47;201.20;;;188.90;;
55202;SDS011;41077;52.956;6.796;2023-03-01T06:59:14;191.15;;;179.50;;
55202;SDS011;41077;52.956;6.796;2023-03-01T07:01:40;197.93;;;185.88;;
55202;SDS011;41077;52.956;6.796;2023-03-01T07:04:06;202.57;;;190.38;;
55202;SDS011;41077;52.956;6.796;2023-03-01T07:06:31;184.32;;;173.13;;
55202;SDS011;41077;52.956;6.796;2023-03-01T07:08:57;194.05;;;181.75;;
55202;SDS011;41077;52.956;6.796;2023-03-01T07:11:23;191.73;;;179.32;;
55202;SDS011;41077;52.956;6.796;2023-03-01T07:13:49;191.30;;;179.10;;
55202;SDS011;41077;52.956;6.796;2023-03-01T07:16:15;183.90;;;172.30;;
55202;SDS011;41077;52.956;6.796;2023-03-01T07:18:41;211.05;;;195.95;;
55202;SDS011;41077;52.956;6.796;2023-03-01T07:21:07;171.95;;;160.68;;
55202;SDS011;41077;52.956;6.796;2023-03-01T07:23:34;163.23;;;152.75;;
55202;SDS011;41077;52.956;6.796;2023-03-01T07:26:00;182.80;;;171.27;;
55202;SDS011;41077;52.956;6.796;2023-03-01T07:28:26;196.88;;;184.73;;
55202;SDS011;41077;52.956;6.796;2023-03-01T07:30:52;211.60;;;198.48;;
55202;SDS011;41077;52.956;6.796;2023-03-01T07:33:18;199.95;;;187.30;;
55202;SDS011;41077;52.956;6.796;2023-03-01T07:35:44;217.75;;;204.20;;
55202;SDS011;41077;52.956;6.796;2023-03-01T07:38:09;234.43;;;219.95;;
55202;SDS011;41077;52.956;6.796;2023-03-01T07:40:35;234.18;;;220.27;;
55202;SDS011;41077;52.956;6.796;2023-03-01T07:43:01;279.92;;;263.45;;
55202;SDS011;41077;52.956;6.796;2023-03-01T07:45:27;274.38;;;258.30;;
55202;SDS011;41077;52.956;6.796;2023-03-01T07:47:53;251.48;;;236.10;;
55202;SDS011;41077;52.956;6.796;2023-03-01T07:50:20;261.60;;;246.55;;
55202;SDS011;41077;52.956;6.796;2023-03-01T07:52:46;253.93;;;238.48;;
55202;SDS011;41077;52.956;6.796;2023-03-01T07:55:13;228.68;;;213.98;;
55202;SDS011;41077;52.956;6.796;2023-03-01T07:57:39;243.32;;;227.93;;
55202;SDS011;41077;52.956;6.796;2023-03-01T08:00:05;236.13;;;221.02;;
55202;SDS011;41077;52.956;6.796;2023-03-01T08:02:32;285.92;;;268.55;;
55202;SDS011;41077;52.956;6.796;2023-03-01T08:04:58;290.02;;;272.77;;
55202;SDS011;41077;52.956;6.796;2023-03-01T08:07:23;346.38;;;325.13;;
55202;SDS011;41077;52.956;6.796;2023-03-01T08:09:49;392.63;;;368.95;;
55202;SDS011;41077;52.956;6.796;2023-03-01T08:12:15;394.25;;;371.45;;
55202;SDS011;41077;52.956;6.796;2023-03-01T08:14:43;379.08;;;357.23;;
55202;SDS011;41077;52.956;6.796;2023-03-01T08:17:09;357.92;;;337.52;;
55202;SDS011;41077;52.956;6.796;2023-03-01T08:19:34;333.60;;;314.33;;
55202;SDS011;41077;52.956;6.796;2023-03-01T08:22:03;326.25;;;306.10;;
55202;SDS011;41077;52.956;6.796;2023-03-01T08:24:29;304.08;;;285.48;;
55202;SDS011;41077;52.956;6.796;2023-03-01T08:26:55;304.10;;;286.15;;
55202;SDS011;41077;52.956;6.796;2023-03-01T08:29:21;295.08;;;276.98;;
55202;SDS011;41077;52.956;6.796;2023-03-01T08:31:47;303.35;;;285.70;;
55202;SDS011;41077;52.956;6.796;2023-03-01T08:34:16;334.63;;;314.83;;
55202;SDS011;41077;52.956;6.796;2023-03-01T08:36:43;325.33;;;305.63;;
55202;SDS011;41077;52.956;6.796;2023-03-01T08:39:11;311.88;;;293.02;;
55202;SDS011;41077;52.956;6.796;2023-03-01T08:41:39;321.52;;;302.33;;
55202;SDS011;41077;52.956;6.796;2023-03-01T08:44:05;332.33;;;312.58;;
55202;SDS011;41077;52.956;6.796;2023-03-01T08:46:32;334.95;;;315.05;;
55202;SDS011;41077;52.956;6.796;2023-03-01T08:49:03;349.02;;;328.25;;
55202;SDS011;41077;52.956;6.796;2023-03-01T08:51:30;346.10;;;326.15;;
55202;SDS011;41077;52.956;6.796;2023-03-01T08:54:01;348.30;;;327.83;;
55202;SDS011;41077;52.956;6.796;2023-03-01T08:56:46;352.67;;;331.77;;
55202;SDS011;41077;52.956;6.796;2023-03-01T08:59:12;366.13;;;344.20;;
55202;SDS011;41077;52.956;6.796;2023-03-01T09:01:38;349.88;;;329.02;;
55202;SDS011;41077;52.956;6.796;2023-03-01T09:04:05;370.38;;;348.75;;
55202;SDS011;41077;52.956;6.796;2023-03-01T09:06:31;368.48;;;346.80;;
55202;SDS011;41077;52.956;6.796;2023-03-01T09:08:58;374.75;;;353.20;;
55202;SDS011;41077;52.956;6.796;2023-03-01T09:11:24;374.88;;;353.70;;
55202;SDS011;41077;52.956;6.796;2023-03-01T09:13:50;355.50;;;335.10;;
55202;SDS011;41077;52.956;6.796;2023-03-01T09:16:17;347.40;;;327.70;;
55202;SDS011;41077;52.956;6.796;2023-03-01T09:18:44;376.75;;;355.55;;
55202;SDS011;41077;52.956;6.796;2023-03-01T09:21:14;348.65;;;329.17;;
55202;SDS011;41077;52.956;6.796;2023-03-01T09:23:41;365.02;;;343.80;;
55202;SDS011;41077;52.956;6.796;2023-03-01T09:26:13;360.90;;;341.10;;
55202;SDS011;41077;52.956;6.796;2023-03-01T09:28:52;338.42;;;318.95;;
55202;SDS011;41077;52.956;6.796;2023-03-01T09:31:20;349.30;;;329.60;;
55202;SDS011;41077;52.956;6.796;2023-03-01T09:33:47;327.88;;;309.63;;
55202;SDS011;41077;52.956;6.796;2023-03-01T09:36:15;312.88;;;294.42;;
55202;SDS011;41077;52.956;6.796;2023-03-01T09:38:46;309.20;;;292.25;;
55202;SDS011;41077;52.956;6.796;2023-03-01T09:46:50;299.13;;;282.45;;
55202;SDS011;41077;52.956;6.796;2023-03-01T09:49:18;290.27;;;274.42;;
55202;SDS011;41077;52.956;6.796;2023-03-01T09:51:53;314.15;;;297.00;;
55202;SDS011;41077;52.956;6.796;2023-03-01T09:54:24;263.30;;;248.82;;
55202;SDS011;41077;52.956;6.796;2023-03-01T09:57:33;260.92;;;246.32;;
55202;SDS011;41077;52.956;6.796;2023-03-01T10:02:52;246.57;;;232.98;;
55202;SDS011;41077;52.956;6.796;2023-03-01T10:05:40;268.58;;;253.63;;
55202;SDS011;41077;52.956;6.796;2023-03-01T10:11:16;221.13;;;209.10;;
55202;SDS011;41077;52.956;6.796;2023-03-01T10:19:28;319.48;;;302.90;;
55202;SDS011;41077;52.956;6.796;2023-03-01T10:22:32;295.15;;;280.30;;
55202;SDS011;41077;52.956;6.796;2023-03-01T10:24:59;278.02;;;263.92;;
55202;SDS011;41077;52.956;6.796;2023-03-01T10:27:45;272.42;;;258.45;;
55202;SDS011;41077;52.956;6.796;2023-03-01T10:30:19;279.13;;;264.83;;
55202;SDS011;41077;52.956;6.796;2023-03-01T10:32:48;293.65;;;278.73;;
55202;SDS011;41077;52.956;6.796;2023-03-01T10:35:19;269.65;;;255.57;;
55202;SDS011;41077;52.956;6.796;2023-03-01T10:38:06;262.65;;;248.68;;
55202;SDS011;41077;52.956;6.796;2023-03-01T10:40:49;230.55;;;217.75;;
55202;SDS011;41077;52.956;6.796;2023-03-01T10:43:16;260.98;;;247.25;;
55202;SDS011;41077;52.956;6.796;2023-03-01T10:45:43;243.38;;;230.52;;
55202;SDS011;41077;52.956;6.796;2023-03-01T10:48:13;238.82;;;226.30;;
55202;SDS011;41077;52.956;6.796;2023-03-01T10:50:51;250.68;;;238.02;;
55202;SDS011;41077;52.956;6.796;2023-03-01T10:53:37;271.65;;;257.98;;
55202;SDS011;41077;52.956;6.796;2023-03-01T10:58:34;261.00;;;246.27;;
55202;SDS011;41077;52.956;6.796;2023-03-01T11:01:03;216.82;;;204.95;;
55202;SDS011;41077;52.956;6.796;2023-03-01T11:03:32;255.80;;;242.68;;
55202;SDS011;41077;52.956;6.796;2023-03-01T11:06:04;294.67;;;278.98;;
55202;SDS011;41077;52.956;6.796;2023-03-01T11:08:37;267.45;;;253.82;;
55202;SDS011;41077;52.956;6.796;2023-03-01T11:11:03;287.63;;;273.13;;
55202;SDS011;41077;52.956;6.796;2023-03-01T11:13:58;235.45;;;223.40;;
55202;SDS011;41077;52.956;6.796;2023-03-01T11:16:41;149.13;;;141.18;;
55202;SDS011;41077;52.956;6.796;2023-03-01T11:22:20;150.32;;;141.93;;
55202;SDS011;41077;52.956;6.796;2023-03-01T11:27:15;126.32;;;119.25;;
55202;SDS011;41077;52.956;6.796;2023-03-01T11:29:52;140.30;;;132.65;;
55202;SDS011;41077;52.956;6.796;2023-03-01T11:32:23;219.88;;;208.48;;
55202;SDS011;41077;52.956;6.796;2023-03-01T11:34:53;128.05;;;120.30;;
55202;SDS011;41077;52.956;6.796;2023-03-01T11:37:36;149.10;;;140.85;;
55202;SDS011;41077;52.956;6.796;2023-03-01T11:40:11;162.38;;;153.48;;
55202;SDS011;41077;52.956;6.796;2023-03-01T11:45:43;293.45;;;275.58;;
55202;SDS011;41077;52.956;6.796;2023-03-01T11:50:47;153.77;;;145.02;;
55202;SDS011;41077;52.956;6.796;2023-03-01T11:56:22;201.43;;;190.20;;
55202;SDS011;41077;52.956;6.796;2023-03-01T11:59:26;182.57;;;171.63;;
55202;SDS011;41077;52.956;6.796;2023-03-01T12:20:48;166.50;;;157.35;;
55202;SDS011;41077;52.956;6.796;2023-03-01T12:42:29;200.73;;;189.93;;
55202;SDS011;41077;52.956;6.796;2023-03-01T12:48:38;170.23;;;160.65;;
55202;SDS011;41077;52.956;6.796;2023-03-01T12:50:48;265.45;;;251.35;;
55202;SDS011;41077;52.956;6.796;2023-03-01T12:53:21;153.05;;;144.30;;
55202;SDS011;41077;52.956;6.796;2023-03-01T12:55:53;169.93;;;160.27;;
55202;SDS011;41077;52.956;6.796;2023-03-01T13:04:18;216.85;;;204.90;;
55202;SDS011;41077;52.956;6.796;2023-03-01T13:07:09;130.55;;;123.00;;
55202;SDS011;41077;52.956;6.796;2023-03-01T13:09:49;98.32;;;92.07;;
55202;SDS011;41077;52.956;6.796;2023-03-01T13:17:47;567.25;;;528.60;;
55202;SDS011;41077;52.956;6.796;2023-03-01T13:20:15;77.95;;;73.03;;
55202;SDS011;41077;52.956;6.796;2023-03-01T13:22:42;104.57;;;97.32;;
55202;SDS011;41077;52.956;6.796;2023-03-01T13:25:14;75.18;;;70.55;;
55202;SDS011;41077;52.956;6.796;2023-03-01T13:27:43;69.70;;;65.03;;
55202;SDS011;41077;52.956;6.796;2023-03-01T13:35:48;86.38;;;81.22;;
55202;SDS011;41077;52.956;6.796;2023-03-01T13:41:02;167.07;;;157.82;;
55202;SDS011;41077;52.956;6.796;2023-03-01T13:43:31;80.07;;;75.20;;
55202;SDS011;41077;52.956;6.796;2023-03-01T13:45:58;87.53;;;82.18;;
55202;SDS011;41077;52.956;6.796;2023-03-01T13:48:26;99.32;;;93.35;;
55202;SDS011;41077;52.956;6.796;2023-03-01T13:50:55;256.75;;;242.10;;
55202;SDS011;41077;52.956;6.796;2023-03-01T13:53:26;84.22;;;79.03;;
55202;SDS011;41077;52.956;6.796;2023-03-01T13:56:24;77.38;;;72.75;;
55202;SDS011;41077;52.956;6.796;2023-03-01T13:59:01;73.63;;;68.72;;
55202;SDS011;41077;52.956;6.796;2023-03-01T14:01:31;87.47;;;82.10;;
55202;SDS011;41077;52.956;6.796;2023-03-01T14:03:59;111.90;;;105.47;;
55202;SDS011;41077;52.956;6.796;2023-03-01T14:06:29;58.70;;;54.92;;
55202;SDS011;41077;52.956;6.796;2023-03-01T14:09:10;85.13;;;79.72;;
55202;SDS011;41077;52.956;6.796;2023-03-01T14:14:42;149.80;;;141.18;;
55202;SDS011;41077;52.956;6.796;2023-03-01T14:20:21;60.30;;;56.55;;
55202;SDS011;41077;52.956;6.796;2023-03-01T14:22:53;74.03;;;69.32;;
55202;SDS011;41077;52.956;6.796;2023-03-01T14:25:23;77.00;;;72.40;;
55202;SDS011;41077;52.956;6.796;2023-03-01T14:27:55;78.95;;;74.32;;
55202;SDS011;41077;52.956;6.796;2023-03-01T14:30:39;75.38;;;70.28;;
55202;SDS011;41077;52.956;6.796;2023-03-01T14:33:18;126.57;;;119.05;;
55202;SDS011;41077;52.956;6.796;2023-03-01T14:36:13;75.88;;;71.30;;
55202;SDS011;41077;52.956;6.796;2023-03-01T14:41:08;69.03;;;64.82;;
55202;SDS011;41077;52.956;6.796;2023-03-01T14:43:40;67.55;;;63.42;;
55202;SDS011;41077;52.956;6.796;2023-03-01T14:46:19;77.20;;;72.00;;
55202;SDS011;41077;52.956;6.796;2023-03-01T14:48:52;159.85;;;151.13;;
55202;SDS011;41077;52.956;6.796;2023-03-01T14:51:21;81.05;;;76.25;;
55202;SDS011;41077;52.956;6.796;2023-03-01T14:53:47;116.03;;;109.13;;
55202;SDS011;41077;52.956;6.796;2023-03-01T14:56:15;57.42;;;53.83;;
55202;SDS011;41077;52.956;6.796;2023-03-01T14:58:45;62.22;;;58.20;;
55202;SDS011;41077;52.956;6.796;2023-03-01T15:01:15;77.78;;;72.95;;
55202;SDS011;41077;52.956;6.796;2023-03-01T15:03:43;210.30;;;198.05;;
55202;SDS011;41077;52.956;6.796;2023-03-01T15:06:12;52.53;;;48.83;;
55202;SDS011;41077;52.956;6.796;2023-03-01T15:08:42;47.67;;;44.35;;
55202;SDS011;41077;52.956;6.796;2023-03-01T15:11:28;112.57;;;105.60;;
55202;SDS011;41077;52.956;6.796;2023-03-01T15:13:55;44.92;;;41.90;;
55202;SDS011;41077;52.956;6.796;2023-03-01T15:16:22;69.50;;;65.35;;
55202;SDS011;41077;52.956;6.796;2023-03-01T15:21:23;64.00;;;59.78;;
55202;SDS011;41077;52.956;6.796;2023-03-01T15:23:57;69.40;;;65.18;;
55202;SDS011;41077;52.956;6.796;2023-03-01T15:26:29;120.70;;;113.85;;
55202;SDS011;41077;52.956;6.796;2023-03-01T15:28:58;74.22;;;69.80;;
55202;SDS011;41077;52.956;6.796;2023-03-01T15:31:25;66.28;;;62.03;;
55202;SDS011;41077;52.956;6.796;2023-03-01T15:34:07;87.28;;;81.93;;
55202;SDS011;41077;52.956;6.796;2023-03-01T15:36:39;81.65;;;76.85;;
55202;SDS011;41077;52.956;6.796;2023-03-01T15:39:32;76.57;;;71.95;;
55202;SDS011;41077;52.956;6.796;2023-03-01T15:41:58;83.32;;;78.40;;
55202;SDS011;41077;52.956;6.796;2023-03-01T15:44:28;73.63;;;69.22;;
55202;SDS011;41077;52.956;6.796;2023-03-01T15:46:55;79.07;;;74.00;;
55202;SDS011;41077;52.956;6.796;2023-03-01T15:49:43;91.28;;;85.78;;
55202;SDS011;41077;52.956;6.796;2023-03-01T15:52:11;88.13;;;82.80;;
55202;SDS011;41077;52.956;6.796;2023-03-01T15:54:38;103.95;;;98.00;;
55202;SDS011;41077;52.956;6.796;2023-03-01T15:57:08;106.97;;;100.72;;
55202;SDS011;41077;52.956;6.796;2023-03-01T15:59:35;132.40;;;125.05;;
55202;SDS011;41077;52.956;6.796;2023-03-01T16:02:01;113.93;;;107.20;;
55202;SDS011;41077;52.956;6.796;2023-03-01T16:04:28;128.20;;;120.85;;
55202;SDS011;41077;52.956;6.796;2023-03-01T16:06:54;128.85;;;121.50;;
55202;SDS011;41077;52.956;6.796;2023-03-01T16:09:23;149.68;;;141.27;;
55202;SDS011;41077;52.956;6.796;2023-03-01T16:11:50;163.85;;;154.80;;
55202;SDS011;41077;52.956;6.796;2023-03-01T16:14:17;158.70;;;149.73;;
55202;SDS011;41077;52.956;6.796;2023-03-01T16:16:43;146.13;;;137.93;;